Terminal Aerodrome Forecast
Issued by NWS

Home | Current Version | Previous Version | Text Only | Print | Product List | Glossary On
Versions: 1 2 3 4 5 6 7 8 9 10 11 12 13 14 15 16 17 18 19 20 21 22 23 24 25 26 27
000
FTUS43 KGRR 011740
TAFMKG
TAF
KMKG 011740Z 0118/0218 29012KT 4SM -RA BR OVC005
     FM011900 31012G20KT 2SM -RASN BR OVC003
     FM012000 31015G22KT 1/2SM SN FG VV004
     FM020100 31017G24KT 2SM -SN OVC009
     FM020500 32014G22KT P6SM OVC025
     FM021300 32008KT P6SM OVC050=

USA.gov is the U.S. government's official web portal to all federal, state and local government web resources and services.